createdAt,value
2022-11-20T02:47:05.199Z,-1.52
2022-11-20T02:48:09.384Z,-1.55
2022-11-20T02:49:13.458Z,-1.53
2022-11-20T02:50:20.100Z,-1.51
2022-11-20T02:51:25.011Z,-1.51
2022-11-20T02:52:28.980Z,-1.50
2022-11-20T02:53:41.712Z,-1.50
2022-11-20T02:54:55.780Z,-1.48
2022-11-20T02:56:00.645Z,-1.51
2022-11-20T02:57:07.134Z,-1.53
2022-11-20T02:58:13.710Z,-1.50
2022-11-20T02:59:17.487Z,-1.47
2022-11-20T03:00:25.692Z,-1.44
2022-11-20T03:03:37.972Z,-1.42
2022-11-20T03:04:43.334Z,-1.41
2022-11-20T03:05:46.920Z,-1.43
2022-11-20T03:06:50.410Z,-1.43
2022-11-20T03:07:56.106Z,-1.46
2022-11-20T03:09:05.312Z,-1.47
2022-11-20T03:10:10.193Z,-1.46
2022-11-20T03:11:14.359Z,-1.46
2022-11-20T03:12:20.452Z,-1.49
2022-11-20T03:13:27.767Z,-1.51
2022-11-20T03:14:36.150Z,-1.50
2022-11-20T03:15:50.573Z,-1.51
2022-11-20T03:16:54.072Z,-1.52
2022-11-20T03:17:59.066Z,-1.49
2022-11-20T03:19:16.024Z,-1.49
2022-11-20T03:20:19.824Z,-1.49
2022-11-20T03:21:26.448Z,-1.50
2022-11-20T03:22:33.292Z,-1.50
2022-11-20T03:23:39.627Z,-1.50
2022-11-20T03:24:47.532Z,-1.51
2022-11-20T03:25:54.922Z,-1.50
2022-11-20T03:26:59.025Z,-1.51
2022-11-20T03:28:02.599Z,-1.51
2022-11-20T03:29:06.660Z,-1.53
2022-11-20T03:30:13.102Z,-1.51
2022-11-20T03:31:24.745Z,-1.49
2022-11-20T03:32:28.755Z,-1.49
2022-11-20T03:33:32.284Z,-1.54
2022-11-20T03:34:35.879Z,-1.52
2022-11-20T03:35:39.986Z,-1.55
2022-11-20T03:36:46.086Z,-1.56
2022-11-20T03:37:52.474Z,-1.58
2022-11-20T03:39:00.261Z,-1.57
2022-11-20T03:40:06.588Z,-1.58
2022-11-20T03:41:21.171Z,-1.56
2022-11-20T03:42:49.081Z,-1.64
2022-11-20T03:44:07.647Z,-1.58
2022-11-20T03:45:16.410Z,-1.60
2022-11-20T03:46:21.008Z,-1.58
2022-11-20T03:47:29.821Z,-1.57
2022-11-20T03:48:39.258Z,-1.56
2022-11-20T03:49:50.200Z,-1.58
2022-11-20T03:51:27.845Z,-1.58
2022-11-20T03:52:33.923Z,-1.61
2022-11-20T03:53:46.203Z,-1.60
2022-11-20T03:54:56.427Z,-1.64
2022-11-20T03:56:00.518Z,-1.64
2022-11-20T03:57:05.803Z,-1.61
2022-11-20T03:58:14.538Z,-1.68
2022-11-20T03:59:18.317Z,-1.93
2022-11-20T04:00:22.243Z,-2.01
2022-11-20T04:01:30.557Z,-1.99
2022-11-20T04:02:34.681Z,-1.95
2022-11-20T04:03:43.656Z,-1.90
2022-11-20T04:04:47.821Z,-1.87
2022-11-20T04:05:53.840Z,-1.82
2022-11-20T04:06:58.998Z,-1.80
2022-11-20T04:08:02.999Z,-1.82
2022-11-20T04:09:08.203Z,-1.78
2022-11-20T04:10:14.859Z,-1.79
2022-11-20T04:11:26.774Z,-1.80
2022-11-20T04:12:38.744Z,-1.79
2022-11-20T04:13:56.669Z,-1.80
2022-11-20T04:15:00.825Z,-1.79
2022-11-20T04:16:06.355Z,-1.79
2022-11-20T04:17:13.146Z,-1.80
2022-11-20T04:18:23.491Z,-1.78
2022-11-20T04:19:36.231Z,-1.77
2022-11-20T04:20:43.407Z,-1.78
2022-11-20T04:21:48.136Z,-1.83
2022-11-20T04:22:58.084Z,-1.83
2022-11-20T04:24:02.352Z,-1.81
2022-11-20T04:25:10.310Z,-1.81
2022-11-20T04:26:18.890Z,-1.82
2022-11-20T04:27:23.817Z,-2.01
2022-11-20T04:28:30.804Z,-2.12
2022-11-20T04:29:36.116Z,-2.12
2022-11-20T04:30:42.674Z,-2.08
2022-11-20T04:31:46.856Z,-2.08
2022-11-20T04:32:59.431Z,-2.05
2022-11-20T04:34:08.933Z,-2.05
2022-11-20T04:35:15.877Z,-2.02
2022-11-20T04:36:27.967Z,-2.02
2022-11-20T04:37:32.134Z,-2.02
2022-11-20T04:38:38.215Z,-2.01
2022-11-20T04:39:47.319Z,-2.04
2022-11-20T04:40:58.510Z,-2.07
2022-11-20T04:42:25.701Z,-2.04
2022-11-20T04:43:36.996Z,-2.04
2022-11-20T04:44:41.034Z,-2.03
2022-11-20T04:45:44.466Z,-2.05
2022-11-20T04:46:50.632Z,-2.07
2022-11-20T04:47:58.410Z,-2.07
2022-11-20T04:49:10.918Z,-2.07
2022-11-20T04:50:23.025Z,-2.05
2022-11-20T04:51:35.427Z,-2.08
2022-11-20T04:52:45.342Z,-2.05
2022-11-20T04:53:51.603Z,-2.09
2022-11-20T04:54:59.508Z,-2.05
2022-11-20T04:56:08.357Z,-2.04
2022-11-20T04:57:17.990Z,-2.04
2022-11-20T04:58:28.612Z,-2.04
2022-11-20T04:59:42.796Z,-2.04
2022-11-20T05:00:49.219Z,-2.04
2022-11-20T05:01:52.980Z,-2.01
2022-11-20T05:02:56.526Z,-2.01
2022-11-20T05:03:59.889Z,-1.99
2022-11-20T05:05:03.447Z,-1.97
2022-11-20T05:06:09.143Z,-1.97
2022-11-20T05:07:13.249Z,-1.97
2022-11-20T05:08:16.835Z,-1.98
2022-11-20T05:09:20.584Z,-1.98
2022-11-20T05:10:25.605Z,-1.99
2022-11-20T05:11:32.134Z,-1.99
2022-11-20T05:12:43.839Z,-2.00
2022-11-20T05:13:52.980Z,-2.00
2022-11-20T05:15:05.977Z,-2.01
2022-11-20T05:16:17.445Z,-2.01
2022-11-20T05:17:23.886Z,-2.05
2022-11-20T05:18:28.651Z,-2.00
2022-11-20T05:19:35.719Z,-2.00
2022-11-20T05:20:43.947Z,-2.01
2022-11-20T05:21:53.652Z,-2.02
2022-11-20T05:23:02.363Z,-2.01
2022-11-20T05:24:15.630Z,-2.03
2022-11-20T05:25:23.313Z,-2.03
2022-11-20T05:26:32.394Z,-2.05
2022-11-20T05:27:59.052Z,-2.04
2022-11-20T05:29:10.263Z,-2.04
2022-11-20T05:30:19.415Z,-2.05
2022-11-20T05:31:30.182Z,-2.09
2022-11-20T05:32:56.635Z,-2.09
2022-11-20T05:35:24.956Z,-2.13
2022-11-20T05:36:32.646Z,-2.15
2022-11-20T05:37:50.501Z,-2.15
2022-11-20T05:39:01.715Z,-2.22
2022-11-20T05:41:45.503Z,-2.21
2022-11-20T05:42:53.003Z,-2.21
2022-11-20T05:44:05.203Z,-2.25
2022-11-20T05:45:11.874Z,-2.28
2022-11-20T05:46:28.115Z,-2.33
2022-11-20T05:47:41.684Z,-2.32
2022-11-20T05:49:01.041Z,-2.32
2022-11-20T05:50:07.246Z,-2.33
2022-11-20T05:51:18.979Z,-2.26
2022-11-20T05:52:32.394Z,-2.23
2022-11-20T05:53:46.873Z,-2.24
2022-11-20T05:56:24.232Z,-2.25
2022-11-20T05:57:27.877Z,-2.23
2022-11-20T05:58:42.948Z,-2.21
2022-11-20T05:59:54.951Z,-2.19
2022-11-20T06:01:28.652Z,-2.18
2022-11-20T06:02:40.881Z,-2.19
2022-11-20T06:04:01.224Z,-2.18
2022-11-20T06:05:15.795Z,-2.21
2022-11-20T06:06:21.867Z,-2.23
2022-11-20T06:07:29.814Z,-2.39
2022-11-20T06:08:35.458Z,-2.32
2022-11-20T06:09:44.483Z,-2.28
2022-11-20T06:10:52.293Z,-2.26
2022-11-20T06:11:59.432Z,-2.28
2022-11-20T06:13:04.383Z,-2.29
2022-11-20T06:14:11.749Z,-2.36
2022-11-20T06:15:15.885Z,-2.41
2022-11-20T06:17:54.098Z,-2.44
2022-11-20T06:19:09.545Z,-2.42
2022-11-20T06:21:43.959Z,-2.44
2022-11-20T06:22:56.861Z,-2.43
2022-11-20T06:24:03.115Z,-2.38
2022-11-20T06:25:08.429Z,-2.37
2022-11-20T06:26:20.486Z,-2.38
2022-11-20T06:27:36.440Z,-2.32
2022-11-20T06:28:48.140Z,-2.34
2022-11-20T06:29:51.917Z,-2.31
2022-11-20T06:31:00.616Z,-2.26
2022-11-20T06:32:04.363Z,-2.24
2022-11-20T06:33:09.572Z,-2.22
2022-11-20T06:34:14.240Z,-2.21
2022-11-20T06:35:24.071Z,-2.27
2022-11-20T06:36:29.813Z,-2.24
2022-11-20T06:37:38.766Z,-2.21
2022-11-20T06:39:12.972Z,-2.23
2022-11-20T06:40:22.263Z,-2.15
2022-11-20T06:41:27.220Z,-2.14
2022-11-20T06:42:30.700Z,-2.13
2022-11-20T06:43:39.068Z,-2.17
2022-11-20T06:44:44.849Z,-2.20
2022-11-20T06:45:58.203Z,-2.21
2022-11-20T06:47:04.986Z,-2.22
2022-11-20T06:48:08.929Z,-2.20
2022-11-20T06:49:20.161Z,-2.17
2022-11-20T06:50:27.501Z,-2.17
2022-11-20T06:51:34.671Z,-2.18
2022-11-20T06:52:43.478Z,-2.17
2022-11-20T06:53:47.294Z,-2.26
2022-11-20T06:54:51.244Z,-2.28
2022-11-20T06:55:59.004Z,-2.28
2022-11-20T06:57:02.689Z,-2.31
2022-11-20T06:58:06.223Z,-2.36
2022-11-20T06:59:10.038Z,-2.36
2022-11-20T07:00:18.111Z,-2.38
2022-11-20T07:01:22.538Z,-2.38
2022-11-20T07:02:26.087Z,-2.35
2022-11-20T07:03:29.954Z,-2.34
2022-11-20T07:04:33.570Z,-2.36
2022-11-20T07:05:38.409Z,-2.34
2022-11-20T07:06:42.083Z,-2.34
2022-11-20T07:07:45.571Z,-2.33
2022-11-20T07:08:53.601Z,-2.33
2022-11-20T07:09:57.041Z,-2.31
2022-11-20T07:11:03.609Z,-2.32
2022-11-20T07:12:07.922Z,-2.27
2022-11-20T07:13:11.564Z,-2.29
2022-11-20T07:14:15.052Z,-2.28
2022-11-20T07:15:20.181Z,-2.26
2022-11-20T07:16:23.669Z,-2.23
2022-11-20T07:17:27.457Z,-2.22
2022-11-20T07:18:31.001Z,-2.20
2022-11-20T07:19:34.549Z,-2.18
2022-11-20T07:20:38.088Z,-2.18
2022-11-20T07:21:41.776Z,-2.17
2022-11-20T07:22:45.879Z,-2.18
2022-11-20T07:23:49.270Z,-2.15
2022-11-20T07:24:52.700Z,-2.19
2022-11-20T07:25:56.179Z,-2.19
2022-11-20T07:26:59.640Z,-2.22
2022-11-20T07:28:03.722Z,-2.19
2022-11-20T07:29:07.466Z,-2.21
2022-11-20T07:30:11.872Z,-2.16
2022-11-20T07:31:19.157Z,-2.20
2022-11-20T07:32:23.450Z,-2.17
2022-11-20T07:33:27.016Z,-2.19
2022-11-20T07:34:30.399Z,-2.22
2022-11-20T07:35:34.127Z,-2.24
2022-11-20T07:36:40.176Z,-2.24
2022-11-20T07:37:44.024Z,-2.25
2022-11-20T07:38:48.085Z,-2.25
2022-11-20T07:39:51.587Z,-2.27
2022-11-20T07:40:57.490Z,-2.29
2022-11-20T07:42:00.919Z,-2.29
2022-11-20T07:43:04.331Z,-2.27
2022-11-20T07:44:08.247Z,-2.24
2022-11-20T07:45:11.722Z,-2.23
2022-11-20T07:46:15.376Z,-2.16
2022-11-20T07:47:18.747Z,-2.24
2022-11-20T07:48:22.241Z,-2.18
2022-11-20T07:49:26.010Z,-2.14
2022-11-20T07:50:29.479Z,-2.10
2022-11-20T07:51:32.943Z,-2.04
2022-11-20T07:52:36.308Z,-2.01
2022-11-20T07:53:39.658Z,-2.01
2022-11-20T07:54:46.817Z,-1.96
2022-11-20T07:55:53.564Z,-1.91
2022-11-20T07:56:57.206Z,-1.88
2022-11-20T07:58:00.969Z,-1.87
2022-11-20T07:59:04.884Z,-1.86
2022-11-20T08:00:12.189Z,-1.86
2022-11-20T08:01:15.635Z,-1.83
2022-11-20T08:02:19.278Z,-1.86
2022-11-20T08:03:25.203Z,-1.81
2022-11-20T08:04:29.349Z,-1.81
2022-11-20T08:05:33.805Z,-1.77
2022-11-20T08:06:38.102Z,-1.76
2022-11-20T08:07:44.178Z,-1.78
2022-11-20T08:08:47.649Z,-1.73
2022-11-20T08:09:51.205Z,-1.68
2022-11-20T08:11:15.169Z,-1.65
2022-11-20T08:12:41.075Z,-1.72
2022-11-20T08:14:03.829Z,-1.72
2022-11-20T08:15:13.157Z,-1.78
2022-11-20T08:16:17.440Z,-1.80
2022-11-20T08:17:20.986Z,-1.83
2022-11-20T08:18:31.120Z,-1.81
2022-11-20T08:19:35.411Z,-1.80
2022-11-20T08:20:39.790Z,-1.79
2022-11-20T08:21:43.958Z,-1.80
2022-11-20T08:22:47.387Z,-1.78
2022-11-20T08:23:51.023Z,-1.79
2022-11-20T08:24:54.510Z,-1.79
2022-11-20T08:25:58.571Z,-1.77
2022-11-20T08:27:03.278Z,-1.77
2022-11-20T08:28:19.895Z,-1.78
2022-11-20T08:29:24.840Z,-1.79
2022-11-20T08:30:28.988Z,-1.75
2022-11-20T08:31:33.465Z,-1.72
2022-11-20T08:32:38.728Z,-1.68
2022-11-20T08:33:42.317Z,-1.66
2022-11-20T08:34:47.474Z,-1.65
2022-11-20T08:35:50.895Z,-1.65
2022-11-20T08:36:54.703Z,-1.64
2022-11-20T08:37:58.626Z,-1.64
2022-11-20T08:39:02.477Z,-1.64
2022-11-20T08:40:07.526Z,-1.66
2022-11-20T08:41:29.373Z,-1.66
2022-11-20T08:42:32.850Z,-1.64
2022-11-20T08:43:36.693Z,-1.65
2022-11-20T08:44:40.278Z,-1.65
2022-11-20T08:45:43.773Z,-1.65
2022-11-20T08:46:48.142Z,-1.64
2022-11-20T08:47:51.682Z,-1.64
2022-11-20T08:48:55.947Z,-1.64
2022-11-20T08:49:59.419Z,-1.68
2022-11-20T08:51:02.994Z,-1.63
2022-11-20T08:52:06.982Z,-1.61
2022-11-20T08:53:10.787Z,-1.56
2022-11-20T08:54:14.813Z,-1.60
2022-11-20T08:55:18.429Z,-1.54
2022-11-20T08:56:21.991Z,-1.51
2022-11-20T08:57:25.562Z,-1.52
2022-11-20T08:58:29.055Z,-1.49
2022-11-20T09:00:57.517Z,-1.44
2022-11-20T09:02:00.955Z,-1.42
2022-11-20T09:03:04.714Z,-1.40
2022-11-20T09:04:08.437Z,-1.44
2022-11-20T09:05:12.675Z,-1.37
2022-11-20T09:06:17.567Z,-1.35
2022-11-20T09:07:21.605Z,-1.32
2022-11-20T09:08:25.160Z,-1.29
2022-11-20T09:09:29.230Z,-1.26
2022-11-20T09:10:33.942Z,-1.22
2022-11-20T09:11:37.399Z,-1.16
2022-11-20T09:12:41.169Z,-1.13
2022-11-20T09:13:44.601Z,-1.13
2022-11-20T09:14:53.728Z,-1.09
2022-11-20T09:16:08.890Z,-1.09
2022-11-20T09:17:16.056Z,-1.03
2022-11-20T09:18:19.633Z,-0.99
2022-11-20T09:19:39.769Z,-0.96
2022-11-20T09:20:44.293Z,-0.93
2022-11-20T09:21:48.494Z,-0.85
2022-11-20T09:22:52.446Z,-0.82
2022-11-20T09:23:55.929Z,-0.79
2022-11-20T09:25:00.544Z,-0.75
2022-11-20T09:26:11.587Z,-0.72
2022-11-20T09:27:15.932Z,-0.71
2022-11-20T09:28:19.944Z,-0.70
2022-11-20T09:29:23.793Z,-0.66
2022-11-20T09:30:28.758Z,-0.66
2022-11-20T09:31:32.376Z,-0.65
2022-11-20T09:32:38.781Z,-0.63
2022-11-20T09:33:42.455Z,-0.62
2022-11-20T09:34:46.188Z,-0.58
2022-11-20T09:35:49.679Z,-0.54
2022-11-20T09:36:53.346Z,-0.51
2022-11-20T09:37:57.567Z,-0.51
2022-11-20T09:39:01.119Z,-0.48
2022-11-20T09:40:05.376Z,-0.47
2022-11-20T09:41:43.431Z,-0.44
2022-11-20T09:43:15.335Z,-0.44
2022-11-20T09:45:14.932Z,-0.42
2022-11-20T09:47:01.264Z,-0.43
2022-11-20T09:48:16.833Z,-0.36
2022-11-20T09:50:17.364Z,-0.41
2022-11-20T09:51:37.072Z,-0.46
2022-11-20T09:53:05.627Z,-0.41
2022-11-20T09:54:22.371Z,-0.36
2022-11-20T09:55:28.283Z,-0.39
2022-11-20T09:56:36.270Z,-0.34
2022-11-20T09:57:46.118Z,-0.30
2022-11-20T09:58:55.032Z,-0.26
2022-11-20T10:00:03.654Z,-0.26
2022-11-20T10:01:20.314Z,-0.22
2022-11-20T10:03:00.035Z,-0.16
2022-11-20T10:04:11.684Z,-0.12
2022-11-20T10:05:31.351Z,-0.14
2022-11-20T10:06:59.682Z,-0.13
2022-11-20T10:08:56.557Z,-0.11
2022-11-20T10:10:01.223Z,-0.07
2022-11-20T10:11:24.609Z,-0.02
2022-11-20T10:13:24.812Z,0.04
2022-11-20T10:14:47.330Z,0.01
2022-11-20T10:16:25.087Z,0.05
2022-11-20T10:17:37.714Z,0.07
2022-11-20T10:19:33.758Z,0.07
2022-11-20T10:21:36.941Z,0.07
2022-11-20T10:23:11.360Z,0.07
2022-11-20T10:24:33.894Z,0.10
2022-11-20T10:26:04.458Z,0.17
2022-11-20T10:27:56.757Z,0.22
2022-11-20T10:29:19.700Z,0.24
2022-11-20T10:30:26.006Z,0.26
2022-11-20T10:31:45.496Z,0.26
2022-11-20T10:33:20.728Z,0.31
2022-11-20T10:34:35.984Z,0.34
2022-11-20T10:35:54.196Z,0.36
2022-11-20T10:37:07.080Z,0.39
2022-11-20T10:38:31.855Z,0.42
2022-11-20T10:39:55.206Z,0.43
2022-11-20T10:41:22.052Z,0.47
2022-11-20T10:42:52.295Z,0.53
2022-11-20T10:44:14.287Z,0.55
2022-11-20T10:45:52.787Z,0.48
2022-11-20T10:46:56.871Z,0.52
2022-11-20T10:48:44.793Z,0.59
2022-11-20T10:49:54.512Z,0.65
2022-11-20T10:51:31.291Z,0.70
2022-11-20T10:53:00.121Z,0.70
2022-11-20T10:54:33.436Z,0.64
2022-11-20T10:56:31.950Z,0.65
2022-11-20T10:58:01.264Z,0.69
2022-11-20T10:59:13.548Z,0.71
2022-11-20T11:00:20.563Z,0.71
2022-11-20T11:01:24.835Z,0.67
2022-11-20T11:02:45.614Z,0.73
2022-11-20T11:03:53.086Z,0.73
2022-11-20T11:04:56.482Z,0.77
2022-11-20T11:06:20.273Z,0.79
2022-11-20T11:07:39.863Z,0.83
2022-11-20T11:08:46.113Z,0.82
2022-11-20T11:10:01.305Z,0.85
2022-11-20T11:11:30.256Z,0.90
2022-11-20T11:12:33.708Z,0.87
2022-11-20T11:13:37.286Z,0.82
2022-11-20T11:14:49.916Z,0.88
2022-11-20T11:15:55.343Z,0.92
2022-11-20T11:17:00.225Z,0.95
2022-11-20T11:18:04.148Z,0.98
2022-11-20T11:19:14.564Z,0.99
2022-11-20T11:20:25.508Z,1.04
2022-11-20T11:21:29.566Z,1.06
2022-11-20T11:22:45.698Z,1.04
2022-11-20T11:24:26.762Z,1.09
2022-11-20T11:25:34.944Z,1.10
2022-11-20T11:26:38.720Z,1.13
2022-11-20T11:27:51.360Z,1.18
2022-11-20T11:29:05.189Z,1.23
2022-11-20T11:30:24.168Z,1.27
2022-11-20T11:31:32.032Z,1.27
2022-11-20T11:32:35.962Z,1.30
2022-11-20T11:33:39.805Z,1.34
2022-11-20T11:34:59.352Z,1.36
2022-11-20T11:36:23.130Z,1.40
2022-11-20T11:37:37.231Z,1.42
2022-11-20T11:38:47.450Z,1.47
2022-11-20T11:40:03.984Z,1.44
2022-11-20T11:41:32.627Z,1.46
2022-11-20T11:42:36.712Z,1.47
2022-11-20T11:43:59.865Z,1.49
2022-11-20T11:45:07.040Z,1.44
2022-11-20T11:46:33.523Z,1.41
2022-11-20T11:47:43.054Z,1.46
2022-11-20T11:49:00.990Z,1.45
2022-11-20T11:50:10.614Z,1.48
2022-11-20T11:51:21.970Z,1.49
2022-11-20T11:52:30.340Z,1.55
2022-11-20T11:53:42.430Z,1.55
2022-11-20T11:55:14.549Z,1.56
2022-11-20T11:56:18.137Z,1.61
2022-11-20T11:57:48.042Z,1.59
2022-11-20T11:59:00.581Z,1.65
2022-11-20T12:00:20.820Z,1.63
2022-11-20T12:01:34.310Z,1.61
2022-11-20T12:02:50.129Z,1.63
2022-11-20T12:04:45.723Z,1.50
2022-11-20T12:06:05.098Z,1.56
2022-11-20T12:07:49.430Z,1.62
2022-11-20T12:09:11.054Z,1.65
2022-11-20T12:10:28.047Z,1.65
2022-11-20T12:12:20.274Z,1.66
2022-11-20T12:13:43.187Z,1.73
2022-11-20T12:14:52.019Z,1.72
2022-11-20T12:15:55.915Z,1.74
2022-11-20T12:17:04.810Z,1.72
2022-11-20T12:18:25.403Z,1.77
2022-11-20T12:19:34.398Z,1.78
2022-11-20T12:20:54.490Z,1.79
2022-11-20T12:22:40.281Z,1.83
2022-11-20T12:24:37.119Z,1.86
2022-11-20T12:25:49.217Z,1.90
2022-11-20T12:27:05.080Z,1.90
2022-11-20T12:28:38.737Z,1.88
2022-11-20T12:30:07.625Z,1.92
2022-11-20T12:31:40.609Z,1.94
2022-11-20T12:32:58.885Z,1.95
2022-11-20T12:34:16.694Z,2.01
2022-11-20T12:35:54.965Z,2.05
2022-11-20T12:37:33.925Z,2.06
2022-11-20T12:39:10.570Z,2.10
2022-11-20T12:40:39.637Z,2.13
2022-11-20T12:42:11.020Z,2.09
2022-11-20T12:43:49.493Z,2.03
2022-11-20T12:45:45.352Z,2.06
2022-11-20T12:47:14.287Z,2.09
2022-11-20T12:48:59.279Z,2.10
2022-11-20T12:51:08.148Z,2.07
2022-11-20T12:52:40.541Z,2.04
2022-11-20T12:53:55.914Z,2.02
2022-11-20T12:55:24.604Z,2.03
2022-11-20T12:56:44.268Z,1.94
2022-11-20T12:58:02.613Z,2.00
2022-11-20T12:59:35.087Z,1.97
2022-11-20T13:01:08.133Z,1.99
2022-11-20T13:02:43.080Z,1.95
2022-11-20T13:03:58.197Z,1.96
2022-11-20T13:05:21.107Z,1.89
2022-11-20T13:06:27.373Z,1.93
2022-11-20T13:07:33.273Z,1.94
2022-11-20T13:08:41.570Z,1.94
2022-11-20T13:09:52.071Z,1.97
2022-11-20T13:11:21.334Z,2.00
2022-11-20T13:13:14.685Z,1.97
2022-11-20T13:15:05.368Z,1.91
2022-11-20T13:16:31.948Z,1.87
2022-11-20T13:18:00.504Z,1.87
2022-11-20T13:19:10.327Z,1.87
2022-11-20T13:20:18.945Z,1.85
2022-11-20T13:21:42.555Z,1.87
2022-11-20T13:23:00.836Z,1.85
2022-11-20T13:24:31.286Z,1.83
2022-11-20T13:25:41.334Z,1.82
2022-11-20T13:26:45.137Z,1.82
2022-11-20T13:27:50.269Z,1.86
2022-11-20T13:29:30.834Z,1.84
2022-11-20T13:30:37.037Z,1.85
2022-11-20T13:31:46.700Z,1.82
2022-11-20T13:33:24.966Z,1.82
2022-11-20T13:34:29.110Z,1.83
2022-11-20T13:35:41.598Z,1.84
2022-11-20T13:36:58.568Z,1.89
2022-11-20T13:38:15.446Z,1.83
2022-11-20T13:39:27.260Z,1.91
2022-11-20T13:40:31.609Z,1.95
2022-11-20T13:41:40.513Z,1.87
2022-11-20T13:42:44.607Z,1.83
2022-11-20T13:43:50.183Z,1.86
2022-11-20T13:44:56.689Z,1.87
2022-11-20T13:46:10.752Z,1.88
2022-11-20T13:47:25.932Z,1.82
2022-11-20T13:48:42.629Z,1.78
2022-11-20T13:49:46.612Z,1.80
2022-11-20T13:51:24.576Z,1.75
2022-11-20T13:52:55.515Z,1.79
2022-11-20T13:54:35.276Z,1.78
2022-11-20T13:56:26.646Z,1.72
2022-11-20T13:58:07.379Z,1.72
2022-11-20T14:00:11.843Z,1.73
2022-11-20T14:01:31.192Z,1.69
2022-11-20T14:02:34.839Z,1.69
2022-11-20T14:04:05.214Z,1.68
2022-11-20T14:05:33.797Z,1.61
2022-11-20T14:06:47.847Z,1.58
2022-11-20T14:07:53.911Z,1.56
2022-11-20T14:09:00.369Z,1.58
2022-11-20T14:10:04.675Z,1.61
2022-11-20T14:11:28.614Z,1.59
2022-11-20T14:12:37.895Z,1.59
2022-11-20T14:14:02.841Z,1.59
2022-11-20T14:15:06.837Z,1.59
2022-11-20T14:16:19.135Z,1.59
2022-11-20T14:17:37.008Z,1.61
2022-11-20T14:18:40.596Z,1.57
2022-11-20T14:19:47.279Z,1.60
2022-11-20T14:20:50.747Z,1.62
2022-11-20T14:22:20.861Z,1.59
2022-11-20T14:23:31.414Z,1.58
2022-11-20T14:24:38.137Z,1.54
2022-11-20T14:25:46.901Z,1.54
2022-11-20T14:26:53.084Z,1.55
2022-11-20T14:28:00.730Z,1.56
2022-11-20T14:29:05.688Z,1.52
2022-11-20T14:30:27.386Z,1.50
2022-11-20T14:31:31.834Z,1.50
2022-11-20T14:32:49.001Z,1.50
2022-11-20T14:33:55.922Z,1.48
2022-11-20T14:35:15.973Z,1.37
2022-11-20T14:36:24.513Z,1.30
2022-11-20T14:37:34.763Z,1.30
2022-11-20T14:38:38.481Z,1.30
2022-11-20T14:39:54.789Z,1.30
2022-11-20T14:41:10.553Z,1.27
2022-11-20T14:42:24.536Z,1.28
2022-11-20T14:43:30.091Z,1.24
2022-11-20T14:44:38.750Z,1.24
2022-11-20T14:45:43.486Z,1.25
2022-11-20T14:46:47.867Z,1.26
2022-11-20T14:47:58.678Z,1.26
2022-11-20T14:49:05.939Z,1.26
2022-11-20T14:50:30.657Z,1.26
2022-11-20T14:51:44.201Z,1.25
2022-11-20T14:53:01.411Z,1.23
2022-11-20T14:54:18.478Z,1.23
2022-11-20T14:55:39.533Z,1.21
2022-11-20T14:57:03.906Z,1.18
2022-11-20T14:58:26.228Z,1.17
2022-11-20T14:59:35.711Z,1.13
2022-11-20T15:00:39.358Z,1.14
2022-11-20T15:02:00.518Z,1.12
2022-11-20T15:03:03.954Z,1.09
2022-11-20T15:04:12.983Z,1.10
2022-11-20T15:05:19.983Z,1.09
2022-11-20T15:06:27.918Z,1.07
2022-11-20T15:07:39.066Z,1.04
2022-11-20T15:08:53.307Z,1.03
2022-11-20T15:10:17.905Z,1.03
2022-11-20T15:11:34.378Z,1.00
2022-11-20T15:13:02.778Z,0.95
2022-11-20T15:14:09.025Z,0.94
2022-11-20T15:15:18.095Z,0.95
2022-11-20T15:16:25.177Z,0.91
2022-11-20T15:17:29.273Z,0.91
2022-11-20T15:18:44.869Z,0.92
2022-11-20T15:19:48.353Z,0.90
2022-11-20T15:20:53.495Z,0.88
2022-11-20T15:21:57.671Z,0.88
2022-11-20T15:23:05.094Z,0.89
2022-11-20T15:24:11.140Z,0.86
2022-11-20T15:25:19.233Z,0.79
2022-11-20T15:26:28.205Z,0.78
2022-11-20T15:27:31.831Z,0.75
2022-11-20T15:28:43.233Z,0.74
2022-11-20T15:29:46.815Z,0.70
2022-11-20T15:30:51.103Z,0.69
2022-11-20T15:31:55.794Z,0.68
2022-11-20T15:32:59.330Z,0.64
2022-11-20T15:34:03.147Z,0.63
2022-11-20T15:35:12.241Z,0.59
2022-11-20T15:36:15.829Z,0.59
2022-11-20T15:37:19.760Z,0.58
2022-11-20T15:38:23.584Z,0.57
2022-11-20T15:39:27.156Z,0.59
2022-11-20T15:40:30.634Z,0.57
2022-11-20T15:41:35.920Z,0.55
2022-11-20T15:42:39.453Z,0.58
2022-11-20T15:43:43.681Z,0.60
2022-11-20T15:44:47.210Z,0.57
2022-11-20T15:45:57.607Z,0.60
2022-11-20T15:47:01.512Z,0.60
2022-11-20T15:48:12.635Z,0.59
2022-11-20T15:49:20.145Z,0.57
2022-11-20T15:50:31.018Z,0.54
2022-11-20T15:52:14.607Z,0.53
2022-11-20T15:53:22.008Z,0.55
2022-11-20T15:54:26.058Z,0.52
2022-11-20T15:55:30.145Z,0.54
2022-11-20T15:56:34.483Z,0.58
2022-11-20T15:57:37.917Z,0.59
2022-11-20T15:58:42.463Z,0.57
2022-11-20T15:59:46.802Z,0.61
2022-11-20T16:00:51.108Z,0.60
2022-11-20T16:01:54.681Z,0.62
2022-11-20T16:02:58.295Z,0.63
2022-11-20T16:04:03.476Z,0.65
2022-11-20T16:05:14.867Z,0.65
2022-11-20T16:06:19.425Z,0.65
2022-11-20T16:07:23.000Z,0.67
2022-11-20T16:08:26.603Z,0.67
2022-11-20T16:09:31.215Z,0.67
2022-11-20T16:10:35.311Z,0.70
2022-11-20T16:11:39.043Z,0.69
2022-11-20T16:13:01.472Z,0.72
2022-11-20T16:14:30.333Z,0.74
2022-11-20T16:15:48.241Z,0.72
2022-11-20T16:17:06.914Z,0.75
2022-11-20T16:18:14.511Z,0.77
2022-11-20T16:19:19.318Z,0.79
2022-11-20T16:20:22.988Z,0.77
2022-11-20T16:21:33.415Z,0.81
2022-11-20T16:22:36.897Z,0.84
2022-11-20T16:23:41.595Z,0.85
2022-11-20T16:24:45.212Z,0.88
2022-11-20T16:25:50.219Z,0.91
2022-11-20T16:26:57.008Z,0.93
2022-11-20T16:28:00.550Z,0.94
2022-11-20T16:29:06.750Z,0.93
2022-11-20T16:30:11.253Z,0.97
2022-11-20T16:31:18.577Z,0.99
2022-11-20T16:32:22.770Z,0.97
2022-11-20T16:33:26.441Z,1.00
2022-11-20T16:34:30.200Z,1.00
2022-11-20T16:35:33.669Z,1.00
2022-11-20T16:36:41.050Z,1.02
2022-11-20T16:37:44.955Z,1.01
2022-11-20T16:38:54.967Z,1.03
2022-11-20T16:39:58.320Z,1.01
2022-11-20T16:41:03.713Z,1.02
2022-11-20T16:42:07.961Z,1.04
2022-11-20T16:43:15.057Z,1.06
2022-11-20T16:44:18.487Z,1.08
2022-11-20T16:45:26.209Z,1.06
2022-11-20T16:46:33.387Z,1.04
2022-11-20T16:47:37.292Z,1.07
2022-11-20T16:48:41.480Z,1.09
2022-11-20T16:49:46.959Z,1.08
2022-11-20T16:50:55.314Z,1.13
2022-11-20T16:52:02.432Z,1.14
2022-11-20T16:53:06.136Z,1.16
2022-11-20T16:54:13.051Z,1.18
2022-11-20T16:55:18.633Z,1.21
2022-11-20T16:56:28.288Z,1.22
2022-11-20T16:57:35.590Z,1.22
2022-11-20T16:59:07.305Z,1.22
2022-11-20T17:00:12.448Z,1.22
2022-11-20T17:01:24.417Z,1.23
2022-11-20T17:02:28.480Z,1.25
2022-11-20T17:03:32.552Z,1.25
2022-11-20T17:04:39.666Z,1.23
2022-11-20T17:05:43.314Z,1.20
2022-11-20T17:06:48.244Z,1.20
2022-11-20T17:07:58.310Z,1.23
2022-11-20T17:09:05.214Z,1.25
2022-11-20T17:10:12.274Z,1.23
2022-11-20T17:11:18.953Z,1.22
2022-11-20T17:12:23.263Z,1.26
2022-11-20T17:13:26.744Z,1.22
2022-11-20T17:14:30.154Z,1.26
2022-11-20T17:15:33.979Z,1.28
2022-11-20T17:16:39.744Z,1.29
2022-11-20T17:17:44.005Z,1.32
2022-11-20T17:18:50.018Z,1.35
2022-11-20T17:19:53.454Z,1.37
2022-11-20T17:20:57.143Z,1.38
2022-11-20T17:22:02.583Z,1.33
2022-11-20T17:23:11.585Z,1.36
2022-11-20T17:24:17.371Z,1.37
2022-11-20T17:25:20.876Z,1.38
2022-11-20T17:26:24.903Z,1.40
2022-11-20T17:27:28.705Z,1.36
2022-11-20T17:28:39.396Z,1.41
2022-11-20T17:29:43.863Z,1.42
2022-11-20T17:30:48.585Z,1.42
2022-11-20T17:31:58.518Z,1.40
2022-11-20T17:33:02.578Z,1.39
2022-11-20T17:34:14.956Z,1.43
2022-11-20T17:35:19.646Z,1.37
2022-11-20T17:36:25.132Z,1.41
2022-11-20T17:37:30.408Z,1.34
2022-11-20T17:38:38.613Z,1.30
2022-11-20T17:39:53.993Z,1.28
2022-11-20T17:41:22.585Z,1.28
2022-11-20T17:42:30.413Z,1.26
2022-11-20T17:43:44.931Z,1.29
2022-11-20T17:44:49.551Z,1.26
2022-11-20T17:45:57.459Z,1.29
2022-11-20T17:47:06.708Z,1.24
2022-11-20T17:48:11.794Z,1.20
2022-11-20T17:49:22.850Z,1.20
2022-11-20T17:50:34.170Z,1.21
2022-11-20T17:51:48.066Z,1.20
2022-11-20T17:52:53.675Z,1.20
2022-11-20T17:54:07.532Z,1.17
2022-11-20T17:55:11.321Z,1.17
2022-11-20T17:56:34.450Z,1.18
2022-11-20T17:57:56.929Z,1.18
2022-11-20T17:59:05.353Z,1.16
2022-11-20T18:00:13.340Z,1.15
2022-11-20T18:01:19.372Z,1.12
2022-11-20T18:02:26.010Z,1.11
2022-11-20T18:03:33.450Z,1.13
2022-11-20T18:04:40.258Z,1.16
2022-11-20T18:05:47.602Z,1.17
2022-11-20T18:06:51.585Z,1.17
2022-11-20T18:07:59.395Z,1.18
2022-11-20T18:09:27.417Z,1.17
2022-11-20T18:10:31.970Z,1.15
2022-11-20T18:11:43.158Z,1.16
2022-11-20T18:12:47.103Z,1.17
2022-11-20T18:14:18.565Z,1.16
2022-11-20T18:15:22.913Z,1.13
2022-11-20T18:16:30.879Z,1.09
2022-11-20T18:17:36.479Z,1.09
2022-11-20T18:18:45.248Z,1.13
2022-11-20T18:20:14.220Z,1.12
2022-11-20T18:21:15.119Z,1.09
2022-11-20T18:22:20.207Z,1.10
2022-11-20T18:23:23.852Z,1.10
2022-11-20T18:24:27.956Z,1.13
2022-11-20T18:25:31.850Z,1.14
2022-11-20T18:26:41.324Z,1.10
2022-11-20T18:27:47.994Z,1.10
2022-11-20T18:28:57.818Z,1.10
2022-11-20T18:30:02.741Z,1.10
2022-11-20T18:31:09.138Z,1.00
2022-11-20T18:32:14.948Z,1.05